createdAt,value
2023-03-20T00:00:58.000Z,29.1
2023-03-20T00:02:25.960Z,28.7
2023-03-20T00:03:42.395Z,27.2
2023-03-20T00:04:57.617Z,26.7
2023-03-20T00:06:02.000Z,25.9
2023-03-20T00:07:29.992Z,26.3
2023-03-20T00:08:45.945Z,25.3
2023-03-20T00:10:02.139Z,26.4
2023-03-20T00:11:18.333Z,28.1
2023-03-20T00:12:34.776Z,26.1
2023-03-20T00:13:50.968Z,25.1
2023-03-20T00:15:06.914Z,24.8
2023-03-20T00:15:39.000Z,25.8
2023-03-20T00:16:23.348Z,24.5
2023-03-20T00:17:39.556Z,27.7
2023-03-20T00:18:44.000Z,23.6
2023-03-20T00:20:11.689Z,25.9
2023-03-20T00:22:43.096Z,25.2
2023-03-20T00:23:59.290Z,28.3
2023-03-20T00:25:15.485Z,25.6
2023-03-20T00:25:49.000Z,27.7
2023-03-20T00:26:31.926Z,26.4
2023-03-20T00:27:48.117Z,26.3
2023-03-20T00:29:04.069Z,25.1
2023-03-20T00:30:20.264Z,27.2
2023-03-20T00:32:52.654Z,28.1
2023-03-20T00:34:09.099Z,28
2023-03-20T00:35:25.286Z,28.9
2023-03-20T00:36:30.000Z,24.5
2023-03-20T00:37:46.000Z,25.4
2023-03-20T00:39:12.890Z,27.2
2023-03-20T00:40:17.000Z,24.2
2023-03-20T00:41:33.000Z,22.4
2023-03-20T00:43:01.475Z,26
2023-03-20T00:44:17.674Z,25.4
2023-03-20T00:45:33.619Z,26.6
2023-03-20T00:46:49.814Z,26.7
2023-03-20T00:48:06.010Z,24.4
2023-03-20T00:49:22.204Z,25.4
2023-03-20T00:50:38.400Z,26.7
2023-03-20T00:51:43.000Z,25.8
2023-03-20T00:53:10.792Z,26
2023-03-20T00:54:15.000Z,23.2
2023-03-20T00:55:43.183Z,28
2023-03-20T00:56:59.378Z,24.6
2023-03-20T00:58:14.840Z,27.5
2023-03-20T00:59:30.785Z,26.5
2023-03-20T01:00:46.981Z,28.1
2023-03-20T01:01:51.000Z,25
2023-03-20T01:03:19.372Z,25
2023-03-20T01:04:35.815Z,24.9
2023-03-20T01:05:52.016Z,26.2
2023-03-20T01:07:08.200Z,25.2
2023-03-20T01:08:24.154Z,24.3
2023-03-20T01:09:29.000Z,22.9
2023-03-20T01:10:45.000Z,24.7
2023-03-20T01:12:12.741Z,25.1
2023-03-20T01:13:29.181Z,25.1
2023-03-20T01:14:44.148Z,25.1
2023-03-20T01:16:00.344Z,24.4
2023-03-20T01:17:16.540Z,26
2023-03-20T01:18:32.736Z,28.8
2023-03-20T01:19:49.179Z,25
2023-03-20T01:21:05.127Z,26.3
2023-03-20T01:22:10.000Z,28.9
2023-03-20T01:23:26.000Z,27.5
2023-03-20T01:24:53.970Z,28.5
2023-03-20T01:25:58.000Z,28.1
2023-03-20T01:27:14.000Z,28.7
2023-03-20T01:28:42.544Z,26.2
2023-03-20T01:29:58.746Z,28.4
2023-03-20T01:31:14.940Z,28.4
2023-03-20T01:32:18.000Z,27
2023-03-20T01:33:03.000Z,25.4
2023-03-20T01:33:46.100Z,27
2023-03-20T01:34:51.000Z,25.9
2023-03-20T01:36:18.740Z,26.1
2023-03-20T01:37:34.686Z,24.8
2023-03-20T01:40:07.078Z,24.8
2023-03-20T01:41:12.000Z,25.8
2023-03-20T01:42:39.718Z,25.9
2023-03-20T01:43:55.665Z,22.3
2023-03-20T01:45:11.860Z,25.1
2023-03-20T01:46:28.056Z,22
2023-03-20T01:47:44.252Z,22.7
2023-03-20T01:48:48.000Z,24.6
2023-03-20T01:50:15.905Z,22.5
2023-03-20T01:51:32.095Z,23.8
2023-03-20T01:52:36.000Z,24.4
2023-03-20T01:53:53.000Z,18.6
2023-03-20T01:55:09.000Z,21
2023-03-20T01:56:36.887Z,23.7
2023-03-20T01:57:53.088Z,20.5
2023-03-20T01:59:09.028Z,20.7
2023-03-20T02:00:25.473Z,21.2
2023-03-20T02:01:41.419Z,22.7
2023-03-20T02:02:57.615Z,21.9
2023-03-20T02:04:14.055Z,20
2023-03-20T02:05:18.000Z,19.3
2023-03-20T02:06:45.462Z,20.1
2023-03-20T02:07:50.000Z,19
2023-03-20T02:09:06.000Z,20.2
2023-03-20T02:10:22.000Z,21.1
2023-03-20T02:11:38.000Z,20.5
2023-03-20T02:13:06.439Z,18.2
2023-03-20T02:14:11.000Z,18.8
2023-03-20T02:15:27.000Z,18.8
2023-03-20T02:16:43.000Z,18.3
2023-03-20T02:17:59.000Z,17.7
2023-03-20T02:19:27.173Z,17.1
2023-03-20T02:20:32.000Z,18.5
2023-03-20T02:21:59.811Z,20.3
2023-03-20T02:23:04.000Z,17.5
2023-03-20T02:24:19.000Z,18.8
2023-03-20T02:25:35.000Z,18.9
2023-03-20T02:26:52.000Z,19.6
2023-03-20T02:28:19.804Z,17.8
2023-03-20T02:29:36.001Z,18.6
2023-03-20T02:31:25.996Z,17
2023-03-20T02:32:08.386Z,19.4
2023-03-20T02:33:13.000Z,22.2
2023-03-20T02:34:29.000Z,18
2023-03-20T02:35:45.000Z,21.3
2023-03-20T02:37:01.000Z,16.8
2023-03-20T02:38:17.000Z,18
2023-03-20T02:39:45.319Z,21.2
2023-03-20T02:41:00.778Z,20
2023-03-20T02:42:05.000Z,19.6
2023-03-20T02:43:21.000Z,18.7
2023-03-20T02:44:49.358Z,17.6
2023-03-20T02:46:05.313Z,17.2
2023-03-20T02:47:21.754Z,19.5
2023-03-20T02:48:26.000Z,18.8
2023-03-20T02:49:53.900Z,21.3
2023-03-20T02:51:10.342Z,18.8
2023-03-20T02:52:26.535Z,19.5
2023-03-20T02:53:42.487Z,20.2
2023-03-20T02:54:58.683Z,18.5
2023-03-20T02:56:14.878Z,19.7
2023-03-20T02:57:30.090Z,19
2023-03-20T02:58:46.284Z,20.3
2023-03-20T03:00:02.481Z,17.3
2023-03-20T03:01:07.000Z,19.3
2023-03-20T03:02:23.000Z,20
2023-03-20T03:03:51.310Z,19.6
2023-03-20T03:05:07.263Z,21.4
2023-03-20T03:06:23.458Z,23.3
2023-03-20T03:07:39.654Z,21.9
2023-03-20T03:08:56.089Z,21.5
2023-03-20T03:10:12.046Z,21.6
2023-03-20T03:11:17.000Z,19.8
2023-03-20T03:12:44.682Z,19.2
2023-03-20T03:13:59.895Z,20.6
2023-03-20T03:15:15.844Z,20.9
2023-03-20T03:16:20.000Z,19.5
2023-03-20T03:17:48.236Z,21.1
2023-03-20T03:19:04.679Z,19.1
2023-03-20T03:20:20.872Z,22.7
2023-03-20T03:21:25.000Z,19.6
2023-03-20T03:22:53.018Z,19
2023-03-20T03:24:09.214Z,20.8
2023-03-20T03:25:14.000Z,21.2
2023-03-20T03:26:41.859Z,23.6
2023-03-20T03:27:57.801Z,21.8
2023-03-20T03:29:13.996Z,18.3
2023-03-20T03:30:29.454Z,21.2
2023-03-20T03:31:45.408Z,20.4
2023-03-20T03:33:01.605Z,21.1
2023-03-20T03:34:06.000Z,18.8
2023-03-20T03:35:34.242Z,23.2
2023-03-20T03:36:50.435Z,20.7
2023-03-20T03:38:06.387Z,24.5
2023-03-20T03:39:22.827Z,23.3
2023-03-20T03:40:27.000Z,21.9
2023-03-20T03:41:55.221Z,21.1
2023-03-20T03:43:11.169Z,20.5
2023-03-20T03:44:27.615Z,24.8
2023-03-20T03:45:43.561Z,26.3
2023-03-20T03:46:47.000Z,20.7
2023-03-20T03:48:14.968Z,23.4
2023-03-20T03:49:31.418Z,23.6
2023-03-20T03:50:47.359Z,22.5
2023-03-20T03:52:03.795Z,19.7
2023-03-20T03:53:20.025Z,22.7
2023-03-20T03:53:53.000Z,25.6
2023-03-20T03:54:24.000Z,24.1
2023-03-20T03:55:52.387Z,20.9
2023-03-20T03:56:25.000Z,23.4
2023-03-20T03:57:08.587Z,20.3
2023-03-20T03:58:24.533Z,23
2023-03-20T04:00:57.169Z,22.2
2023-03-20T04:03:28.573Z,22.8
2023-03-20T04:04:33.000Z,27
2023-03-20T04:05:49.000Z,21.5
2023-03-20T04:07:05.000Z,24.5
2023-03-20T04:08:21.000Z,27.1
2023-03-20T04:09:49.309Z,26.9
2023-03-20T04:10:54.000Z,22.9
2023-03-20T04:12:10.000Z,23.6
2023-03-20T04:13:37.896Z,24.9
2023-03-20T04:14:42.000Z,22.7
2023-03-20T04:16:10.287Z,22.5
2023-03-20T04:17:15.000Z,23
2023-03-20T04:18:42.679Z,23.7
2023-03-20T04:19:46.000Z,23.7
2023-03-20T04:21:14.333Z,22.8
2023-03-20T04:22:19.000Z,21.3
2023-03-20T04:23:46.726Z,23.6
2023-03-20T04:24:51.000Z,20.2
2023-03-20T04:26:19.110Z,22.7
2023-03-20T04:27:35.307Z,21.6
2023-03-20T04:28:40.000Z,22.4
2023-03-20T04:30:07.698Z,20.9
2023-03-20T04:31:23.914Z,24.6
2023-03-20T04:32:28.000Z,20.6
2023-03-20T04:33:56.286Z,23.4
2023-03-20T04:35:12.490Z,23.1
2023-03-20T04:36:27.449Z,20.5
2023-03-20T04:37:43.893Z,21.2
2023-03-20T04:39:00.091Z,20.8
2023-03-20T04:40:16.283Z,22.3
2023-03-20T04:41:20.000Z,19.6
2023-03-20T04:42:48.676Z,23.9
2023-03-20T04:44:04.886Z,20.5
2023-03-20T04:45:09.000Z,20.4
2023-03-20T04:46:37.258Z,19.5
2023-03-20T04:47:53.210Z,20
2023-03-20T04:49:09.406Z,19
2023-03-20T04:50:14.000Z,19.1
2023-03-20T04:51:41.798Z,17.2
2023-03-20T04:52:57.009Z,16.9
2023-03-20T04:54:13.205Z,18.7
2023-03-20T04:55:29.649Z,16.7
2023-03-20T04:56:45.596Z,16.2
2023-03-20T04:58:02.056Z,17.5
2023-03-20T04:59:18.231Z,19.1
2023-03-20T05:00:22.000Z,16.3
2023-03-20T05:01:50.622Z,15.6
2023-03-20T05:02:55.000Z,17.7
2023-03-20T05:04:22.770Z,20.4
2023-03-20T05:05:39.216Z,20.4
2023-03-20T05:06:55.161Z,19.8
2023-03-20T05:08:00.000Z,19.1
2023-03-20T05:09:26.569Z,19.9
2023-03-20T05:10:42.765Z,19.4
2023-03-20T05:11:58.961Z,19.1
2023-03-20T05:13:03.000Z,22
2023-03-20T05:14:31.352Z,19.4
2023-03-20T05:15:47.798Z,19.8
2023-03-20T05:17:03.746Z,21.2
2023-03-20T05:18:08.000Z,21
2023-03-20T05:19:36.380Z,21.1
2023-03-20T05:20:41.000Z,23.1
2023-03-20T05:21:57.000Z,19.7
2023-03-20T05:23:24.972Z,18.9
2023-03-20T05:24:40.920Z,21.2
2023-03-20T05:25:57.366Z,18.6
2023-03-20T05:27:12.329Z,20.6
2023-03-20T05:28:17.000Z,21.2
2023-03-20T05:29:33.000Z,18.8
2023-03-20T05:31:00.916Z,21.3
2023-03-20T05:32:17.357Z,20.4
2023-03-20T05:33:33.552Z,20.5
2023-03-20T05:34:49.505Z,22.9
2023-03-20T05:36:05.700Z,20.1
2023-03-20T05:37:22.145Z,20.8
2023-03-20T05:38:38.331Z,20.1
2023-03-20T05:39:43.000Z,22.7
2023-03-20T05:40:59.000Z,23.5
2023-03-20T05:42:26.679Z,21.1
2023-03-20T05:43:42.134Z,22.1
2023-03-20T05:44:46.000Z,21.6
2023-03-20T05:46:03.000Z,22.8
2023-03-20T05:47:19.000Z,21.1
2023-03-20T05:48:35.000Z,21
2023-03-20T05:50:02.870Z,21.8
2023-03-20T05:51:19.066Z,24.6
2023-03-20T05:52:35.262Z,22.5
2023-03-20T05:53:51.705Z,22.1
2023-03-20T05:55:07.653Z,25.2
2023-03-20T05:56:23.848Z,24.5
2023-03-20T05:57:28.000Z,25.4
2023-03-20T05:58:56.239Z,26.2
2023-03-20T06:00:11.452Z,28.1
2023-03-20T06:01:16.000Z,26.8
2023-03-20T06:02:44.100Z,25.7
2023-03-20T06:04:00.292Z,24.9
2023-03-20T06:05:16.236Z,24.2
2023-03-20T06:06:32.680Z,22.8
2023-03-20T06:07:48.627Z,25.1
2023-03-20T06:09:04.822Z,25.5
2023-03-20T06:10:09.000Z,25.1
2023-03-20T06:11:25.000Z,24.1
2023-03-20T06:12:53.412Z,21.8
2023-03-20T06:13:58.000Z,20.8
2023-03-20T06:15:25.804Z,20
2023-03-20T06:16:41.016Z,17.9
2023-03-20T06:17:57.471Z,18.3
2023-03-20T06:19:13.651Z,19.3
2023-03-20T06:20:29.604Z,20.2
2023-03-20T06:21:45.799Z,20.8
2023-03-20T06:22:50.000Z,17.6
2023-03-20T06:23:35.000Z,17
2023-03-20T06:24:06.000Z,17.7
2023-03-20T06:25:34.387Z,17.8
2023-03-20T06:26:50.837Z,15.5
2023-03-20T06:28:06.780Z,16.9
2023-03-20T06:30:39.172Z,16.4
2023-03-20T06:31:44.000Z,17.9
2023-03-20T06:33:10.580Z,17.7
2023-03-20T06:34:15.000Z,19.4
2023-03-20T06:35:42.973Z,15.8
2023-03-20T06:36:47.000Z,15.4
2023-03-20T06:37:32.000Z,16.2
2023-03-20T06:38:04.000Z,15.7
2023-03-20T06:39:20.000Z,16.3
2023-03-20T06:40:48.013Z,16
2023-03-20T06:41:52.000Z,16.2
2023-03-20T06:44:36.586Z,14
2023-03-20T06:45:41.000Z,13.9
2023-03-20T06:47:08.986Z,13.7
2023-03-20T06:48:24.932Z,15
2023-03-20T06:49:40.143Z,15.2
2023-03-20T06:50:45.000Z,14
2023-03-20T06:51:30.000Z,14.5
2023-03-20T06:52:12.778Z,12
2023-03-20T06:53:17.000Z,14.1
2023-03-20T06:54:45.174Z,15.6
2023-03-20T06:56:01.123Z,12.4
2023-03-20T06:56:34.000Z,15.2
2023-03-20T06:58:33.514Z,13.4
2023-03-20T06:59:49.709Z,12.7
2023-03-20T07:00:54.000Z,12
2023-03-20T07:03:38.297Z,13.2
2023-03-20T07:04:43.000Z,12.8
2023-03-20T07:06:09.705Z,12.8
2023-03-20T07:07:26.149Z,11.5
2023-03-20T07:08:42.097Z,12.3
2023-03-20T07:09:58.293Z,10.9
2023-03-20T07:11:14.489Z,10.3
2023-03-20T07:12:30.684Z,12.5
2023-03-20T07:13:46.880Z,11.6
2023-03-20T07:14:51.000Z,10.9
2023-03-20T07:16:19.271Z,11.1
2023-03-20T07:17:35.466Z,10.6
2023-03-20T07:18:51.663Z,12
2023-03-20T07:20:08.111Z,12.5
2023-03-20T07:20:40.000Z,11.2
2023-03-20T07:21:24.055Z,12.3
2023-03-20T07:22:27.000Z,13.9
2023-03-20T07:23:55.462Z,11.3
2023-03-20T07:25:11.657Z,11.8
2023-03-20T07:27:01.000Z,11.6
2023-03-20T07:27:32.000Z,11.4
2023-03-20T07:29:00.246Z,11.7
2023-03-20T07:30:05.000Z,10.8
2023-03-20T07:31:32.637Z,10
2023-03-20T07:34:05.276Z,9.4
2023-03-20T07:35:21.224Z,10.4
2023-03-20T07:36:37.420Z,10.8
2023-03-20T07:37:42.000Z,9
2023-03-20T07:39:09.812Z,10
2023-03-20T07:40:13.000Z,10.1
2023-03-20T07:41:41.220Z,9.6
2023-03-20T07:42:46.000Z,10.8
2023-03-20T07:44:13.612Z,9.6
2023-03-20T07:45:28.829Z,9.2
2023-03-20T07:46:45.025Z,10.6
2023-03-20T07:48:01.221Z,9.2
2023-03-20T07:49:17.417Z,9.1
2023-03-20T07:50:33.614Z,9
2023-03-20T07:51:49.811Z,8.9
2023-03-20T07:52:54.000Z,9.1
2023-03-20T07:54:22.203Z,9.2
2023-03-20T07:55:27.000Z,9.1
2023-03-20T07:56:54.843Z,8.2
2023-03-20T07:58:10.790Z,11.4
2023-03-20T07:59:26.986Z,8
2023-03-20T08:00:43.181Z,9.3
2023-03-20T08:01:59.378Z,11
2023-03-20T08:03:14.590Z,8.1
2023-03-20T08:04:30.787Z,10.3
2023-03-20T08:05:35.000Z,10.5
2023-03-20T08:07:03.178Z,11
2023-03-20T08:08:08.000Z,7.5
2023-03-20T08:09:35.570Z,9.9
2023-03-20T08:10:52.072Z,9.3
2023-03-20T08:11:56.000Z,8
2023-03-20T08:13:12.000Z,8.3
2023-03-20T08:14:40.353Z,8.6
2023-03-20T08:15:56.548Z,9.9
2023-03-20T08:17:12.744Z,6.3
2023-03-20T08:18:17.000Z,6.8
2023-03-20T08:19:45.135Z,6.3
2023-03-20T08:21:00.598Z,7.2
2023-03-20T08:22:16.543Z,6.5
2023-03-20T08:23:32.987Z,6.7
2023-03-20T08:24:48.936Z,6.7
2023-03-20T08:25:53.000Z,6.3
2023-03-20T08:27:10.000Z,9.2
2023-03-20T08:28:37.524Z,6.6
2023-03-20T08:29:53.967Z,7.9
2023-03-20T08:30:27.000Z,6.6
2023-03-20T08:31:10.164Z,6.6
2023-03-20T08:31:43.000Z,6.3
2023-03-20T08:32:14.000Z,6.6
2023-03-20T08:33:42.551Z,6.7
2023-03-20T08:34:58.503Z,5.8
2023-03-20T08:38:34.000Z,8.1
2023-03-20T08:39:51.000Z,8.1
2023-03-20T08:41:18.497Z,6.5
2023-03-20T08:42:34.948Z,6.7
2023-03-20T08:43:50.888Z,6.9
2023-03-20T08:45:07.329Z,7.8
2023-03-20T08:46:11.000Z,4.8
2023-03-20T08:47:39.477Z,5
2023-03-20T08:48:55.673Z,4.3
2023-03-20T08:50:11.869Z,4.9
2023-03-20T08:51:16.000Z,4.2
2023-03-20T08:52:44.260Z,4.8
2023-03-20T08:53:16.000Z,4.7
2023-03-20T08:54:00.455Z,4
2023-03-20T08:55:15.912Z,4
2023-03-20T08:56:20.000Z,3.8
2023-03-20T08:57:48.060Z,3.5
2023-03-20T09:00:09.000Z,5.1
2023-03-20T09:01:36.900Z,3.5
2023-03-20T09:02:41.000Z,3.8
2023-03-20T09:03:57.000Z,3.4
2023-03-20T09:04:42.000Z,1.9
2023-03-20T09:05:25.488Z,3.5
2023-03-20T09:06:41.432Z,3.1
2023-03-20T09:07:57.629Z,2.7
2023-03-20T09:08:30.000Z,2
2023-03-20T09:09:02.000Z,3.3
2023-03-20T09:11:33.000Z,3.1
2023-03-20T09:13:01.679Z,3.5
2023-03-20T09:15:33.820Z,5.3
2023-03-20T09:16:07.000Z,4.4
2023-03-20T09:16:50.015Z,3.2
2023-03-20T09:18:06.211Z,3.9
2023-03-20T09:18:39.000Z,4.9
2023-03-20T09:19:22.406Z,3.7
2023-03-20T09:20:38.602Z,5
2023-03-20T09:23:10.994Z,3.4
2023-03-20T09:25:43.386Z,3.9
2023-03-20T09:26:59.832Z,4.5
2023-03-20T09:28:15.777Z,3.8
2023-03-20T09:29:19.000Z,3.6
2023-03-20T09:30:47.451Z,4.1
2023-03-20T09:32:03.380Z,4.3
2023-03-20T09:33:19.576Z,4.1
2023-03-20T09:34:35.771Z,5.5
2023-03-20T09:35:51.967Z,4.2
2023-03-20T09:36:56.000Z,3.7
2023-03-20T09:38:24.615Z,4.3
2023-03-20T09:39:40.807Z,3.5
2023-03-20T09:40:56.752Z,3.7
2023-03-20T09:42:13.194Z,5.2
2023-03-20T09:43:29.143Z,4.9
2023-03-20T09:44:45.338Z,4.2
2023-03-20T09:46:00.551Z,4.2
2023-03-20T09:46:34.000Z,4.8
2023-03-20T09:47:05.000Z,3.7
2023-03-20T09:48:32.942Z,4.1
2023-03-20T09:49:49.385Z,3.8
2023-03-20T09:50:54.000Z,3.6
2023-03-20T09:53:37.725Z,5.7
2023-03-20T09:54:42.000Z,3.9
2023-03-20T09:55:58.000Z,3.9
2023-03-20T09:57:26.564Z,3.8
2023-03-20T09:58:42.499Z,4.6
2023-03-20T09:59:15.000Z,5.9
2023-03-20T09:59:58.693Z,4
2023-03-20T10:01:15.134Z,4.2
2023-03-20T10:02:18.000Z,4.1
2023-03-20T10:03:34.000Z,3.6
2023-03-20T10:06:18.679Z,4.3
2023-03-20T10:07:23.000Z,3.5
2023-03-20T10:08:51.066Z,3.7
2023-03-20T10:10:07.259Z,5.9
2023-03-20T10:11:23.452Z,4
2023-03-20T10:11:57.000Z,3.8
2023-03-20T10:12:39.646Z,4
2023-03-20T10:13:55.840Z,4.6
2023-03-20T10:15:00.000Z,4.2
2023-03-20T10:15:44.000Z,3.8
2023-03-20T10:16:28.227Z,5.3
2023-03-20T10:17:00.000Z,4
2023-03-20T10:19:00.864Z,4.1
2023-03-20T10:20:04.000Z,3.8
2023-03-20T10:24:04.405Z,5
2023-03-20T10:25:09.000Z,6.5
2023-03-20T10:26:36.792Z,4.3
2023-03-20T10:27:53.232Z,5.2
2023-03-20T10:29:09.179Z,5
2023-03-20T10:30:25.620Z,3.5
2023-03-20T10:31:41.566Z,4
2023-03-20T10:32:57.760Z,4.7
2023-03-20T10:34:13.953Z,3.9
2023-03-20T10:35:30.147Z,3.7
2023-03-20T10:36:45.357Z,3.4
2023-03-20T10:37:50.000Z,4
2023-03-20T10:39:17.744Z,4.5
2023-03-20T10:40:34.189Z,4.9
2023-03-20T10:41:38.000Z,4.5
2023-03-20T10:43:06.324Z,4.3
2023-03-20T10:44:22.772Z,4.4
2023-03-20T10:45:38.957Z,3.8
2023-03-20T10:46:54.905Z,4.9
2023-03-20T10:48:11.099Z,7.3
2023-03-20T10:49:27.292Z,3.9
2023-03-20T10:49:59.000Z,4.4
2023-03-20T10:50:32.000Z,5.1
2023-03-20T10:51:59.679Z,4.4
2023-03-20T10:53:03.000Z,4.1
2023-03-20T10:54:31.083Z,4.1
2023-03-20T10:56:52.000Z,4.1
2023-03-20T10:58:19.664Z,3.9
2023-03-20T10:59:36.113Z,5.9
2023-03-20T11:00:40.000Z,3.7
2023-03-20T11:02:08.493Z,3.7
2023-03-20T11:03:24.691Z,4.9
2023-03-20T11:04:40.631Z,4.2
2023-03-20T11:05:57.072Z,3.9
2023-03-20T11:07:13.018Z,3.6
2023-03-20T11:08:29.212Z,4.6
2023-03-20T11:09:45.405Z,4.4
2023-03-20T11:11:00.615Z,4
2023-03-20T11:12:16.809Z,3.5
2023-03-20T11:13:33.003Z,3.8
2023-03-20T11:14:49.443Z,3.3
2023-03-20T11:15:54.000Z,4
2023-03-20T11:17:21.832Z,2.8
2023-03-20T11:18:38.032Z,2.6
2023-03-20T11:19:42.000Z,3.8
2023-03-20T11:20:58.000Z,2.6
2023-03-20T11:22:26.358Z,2.6
2023-03-20T11:23:42.552Z,2.5
2023-03-20T11:24:59.000Z,2.4
2023-03-20T11:26:14.939Z,3.7
2023-03-20T11:26:47.000Z,3.4
2023-03-20T11:27:30.149Z,3.5
2023-03-20T11:28:03.000Z,2.8
2023-03-20T11:28:35.000Z,2.8
2023-03-20T11:30:02.789Z,3
2023-03-20T11:31:07.000Z,2.3
2023-03-20T11:31:52.000Z,2.6
2023-03-20T11:35:07.309Z,2.4
2023-03-20T11:36:23.503Z,2.9
2023-03-20T11:38:55.890Z,3.2
2023-03-20T11:40:12.336Z,3.5
2023-03-20T11:41:28.277Z,3.6
2023-03-20T11:42:44.713Z,2.4
2023-03-20T11:43:59.938Z,4.2
2023-03-20T11:45:16.136Z,4.4
2023-03-20T11:46:32.067Z,2.2
2023-03-20T11:47:48.260Z,3.1
2023-03-20T11:49:04.706Z,2.2
2023-03-20T11:50:20.647Z,2.2
2023-03-20T11:51:36.841Z,3.4
2023-03-20T11:52:53.035Z,3.9
2023-03-20T11:53:57.000Z,2.8
2023-03-20T11:55:25.422Z,2.1
2023-03-20T11:57:37.286Z,3.9
2023-03-20T11:57:58.065Z,3.4
2023-03-20T11:59:14.003Z,2.1
2023-03-20T12:00:30.445Z,2.3
2023-03-20T12:01:34.000Z,2.8
2023-03-20T12:03:01.604Z,2.2
2023-03-20T12:04:17.798Z,2.2
2023-03-20T12:05:33.991Z,2.4
2023-03-20T12:06:50.185Z,1.6
2023-03-20T12:07:55.000Z,2.1
2023-03-20T12:09:11.000Z,1.8
2023-03-20T12:10:38.765Z,2
2023-03-20T12:11:55.208Z,1.6
2023-03-20T12:13:11.152Z,2.3
2023-03-20T12:14:27.346Z,3.2
2023-03-20T12:15:43.792Z,4.5
2023-03-20T12:16:59.733Z,1.4
2023-03-20T12:18:03.000Z,1.6
2023-03-20T12:19:19.000Z,3
2023-03-20T12:20:36.000Z,1.5
2023-03-20T12:21:52.000Z,2.8
2023-03-20T12:23:19.716Z,1.2
2023-03-20T12:24:35.193Z,3.3
2023-03-20T12:25:39.000Z,1.6
2023-03-20T12:27:06.339Z,1.9
2023-03-20T12:28:21.560Z,3.7
2023-03-20T12:30:27.267Z,2.7
2023-03-20T12:30:52.242Z,2.4
2023-03-20T12:31:24.000Z,2.1
2023-03-20T12:32:07.200Z,1.5
2023-03-20T12:33:23.641Z,1.5
2023-03-20T12:34:28.000Z,2.5
2023-03-20T12:35:55.781Z,2.2
2023-03-20T12:38:28.411Z,1.8
2023-03-20T12:39:33.000Z,2.4
2023-03-20T12:41:00.810Z,2.1
2023-03-20T12:42:16.749Z,2.3
2023-03-20T12:43:32.943Z,3.8
2023-03-20T12:44:49.137Z,1.7
2023-03-20T12:46:05.330Z,2.6
2023-03-20T12:47:21.769Z,1.4
2023-03-20T12:48:37.717Z,4
2023-03-20T12:49:53.174Z,3.1
2023-03-20T12:51:09.121Z,3
2023-03-20T12:52:25.315Z,2.6
2023-03-20T12:53:41.768Z,2.8
2023-03-20T12:54:57.702Z,2.2
2023-03-20T12:56:13.895Z,2.2
2023-03-20T12:56:45.000Z,1.4
2023-03-20T12:57:17.000Z,2.3
2023-03-20T12:58:33.000Z,2.3
2023-03-20T12:59:49.000Z,1.9
2023-03-20T13:01:05.000Z,1.5
2023-03-20T13:03:49.100Z,1.9
2023-03-20T13:05:24.602Z,2.7
2023-03-20T13:05:36.000Z,2.5
2023-03-20T13:06:21.487Z,2.3
2023-03-20T13:06:52.000Z,3.5
2023-03-20T13:07:36.706Z,2.1
2023-03-20T13:08:51.917Z,2.3
2023-03-20T13:09:56.000Z,3
2023-03-20T13:13:56.691Z,2.5
2023-03-20T13:14:30.000Z,4.5
2023-03-20T13:15:01.000Z,3
2023-03-20T13:16:29.326Z,3.6
2023-03-20T13:17:45.521Z,3.1
2023-03-20T13:19:01.465Z,3.3
2023-03-20T13:21:33.852Z,3.6
2023-03-20T13:22:50.045Z,3.6
2023-03-20T13:24:06.239Z,1.3
2023-03-20T13:25:10.000Z,1.4
2023-03-20T13:26:37.643Z,1.6
2023-03-20T13:27:53.836Z,2
2023-03-20T13:29:10.030Z,1.4
2023-03-20T13:30:26.469Z,2.4
2023-03-20T13:31:42.666Z,2.2
2023-03-20T13:32:58.611Z,2.1
2023-03-20T13:34:14.805Z,4
2023-03-20T13:35:19.000Z,1.8
2023-03-20T13:36:35.000Z,2.7
2023-03-20T13:37:52.000Z,2.8
2023-03-20T13:39:08.000Z,3.7
2023-03-20T13:40:35.772Z,1.7
2023-03-20T13:41:51.966Z,2.3
2023-03-20T13:43:28.285Z,3.1
2023-03-20T13:44:23.371Z,1.8
2023-03-20T13:45:39.564Z,3.1
2023-03-20T13:46:56.010Z,1.7
2023-03-20T13:48:00.000Z,3.4
2023-03-20T13:49:28.145Z,3.6
2023-03-20T13:50:33.000Z,1.5
2023-03-20T13:51:17.000Z,2.9
2023-03-20T13:52:00.532Z,3.1
2023-03-20T13:53:16.725Z,5.5
2023-03-20T13:54:32.918Z,3.5
2023-03-20T13:55:49.112Z,1.3
2023-03-20T13:58:21.499Z,2.9
2023-03-20T13:59:36.719Z,2.5
2023-03-20T14:00:40.000Z,1.8
2023-03-20T14:02:08.124Z,1.6
2023-03-20T14:03:12.000Z,3.2
2023-03-20T14:04:39.537Z,3
2023-03-20T14:05:54.746Z,3.7
2023-03-20T14:07:10.941Z,2.2
2023-03-20T14:08:27.135Z,1.9
2023-03-20T14:09:43.328Z,3.1
2023-03-20T14:10:59.522Z,3
2023-03-20T14:12:15.715Z,2.9
2023-03-20T14:13:32.157Z,2
2023-03-20T14:14:48.102Z,2.6
2023-03-20T14:16:04.295Z,2.3
2023-03-20T14:17:20.741Z,2.8
2023-03-20T14:18:36.682Z,2.3
2023-03-20T14:19:53.126Z,3.1
2023-03-20T14:21:09.069Z,3.1
2023-03-20T14:22:24.280Z,2.7
2023-03-20T14:23:29.000Z,1.4
2023-03-20T14:24:56.917Z,2.1
2023-03-20T14:26:12.859Z,3.2
2023-03-20T14:27:29.053Z,2.5
2023-03-20T14:28:33.000Z,2.7
2023-03-20T14:30:01.441Z,2.1
2023-03-20T14:31:17.634Z,3.5
2023-03-20T14:32:33.828Z,2.6
2023-03-20T14:33:50.021Z,3.5
2023-03-20T14:35:06.215Z,3.3
2023-03-20T14:35:38.000Z,1.5
2023-03-20T14:36:22.408Z,3.6
2023-03-20T14:37:38.602Z,2.8
2023-03-20T14:38:11.000Z,3.7
2023-03-20T14:38:42.000Z,2.7
2023-03-20T14:40:10.252Z,3.2
2023-03-20T14:42:42.392Z,3.2
2023-03-20T14:45:14.779Z,3.1
2023-03-20T14:46:31.222Z,3.1
2023-03-20T14:47:47.166Z,1.5
2023-03-20T14:49:03.359Z,3.3
2023-03-20T14:50:19.552Z,3.2
2023-03-20T14:51:24.000Z,2.3
2023-03-20T14:52:51.939Z,2.5
2023-03-20T14:53:56.000Z,2.4
2023-03-20T14:55:24.326Z,3.4
2023-03-20T14:56:39.536Z,3.9
2023-03-20T14:57:55.729Z,2.6
2023-03-20T14:59:11.923Z,3.8
2023-03-20T15:00:28.116Z,3.5
2023-03-20T15:01:44.310Z,2.9
2023-03-20T15:03:00.504Z,2.4
2023-03-20T15:04:15.724Z,3.9
2023-03-20T15:05:31.918Z,4.6
2023-03-20T15:06:35.000Z,2.5
2023-03-20T15:07:18.000Z,4.1
2023-03-20T15:08:03.567Z,2.9
2023-03-20T15:09:19.764Z,3.6
2023-03-20T15:10:35.955Z,3.3
2023-03-20T15:11:51.172Z,2.3
2023-03-20T15:14:22.331Z,4.3
2023-03-20T15:15:38.524Z,2.2
2023-03-20T15:16:54.718Z,2.4
2023-03-20T15:18:10.912Z,4.1
2023-03-20T15:19:15.000Z,2.6
2023-03-20T15:20:43.299Z,2.9
2023-03-20T15:21:59.493Z,2.5
2023-03-20T15:23:15.686Z,3.1
2023-03-20T15:24:31.880Z,3.7
2023-03-20T15:25:48.319Z,4
2023-03-20T15:27:04.267Z,4
2023-03-20T15:28:20.461Z,3.8
2023-03-20T15:29:35.671Z,2.5
2023-03-20T15:30:52.119Z,2.2
2023-03-20T15:31:56.000Z,3.4
2023-03-20T15:33:24.251Z,4.8
2023-03-20T15:34:40.445Z,3.3
2023-03-20T15:35:56.638Z,2.5
2023-03-20T15:37:12.832Z,2.5
2023-03-20T15:38:29.025Z,4
2023-03-20T15:39:45.219Z,3.9
2023-03-20T15:41:01.412Z,2.3
2023-03-20T15:41:33.000Z,3.6
2023-03-20T15:42:17.606Z,3.6
2023-03-20T15:43:33.799Z,4
2023-03-20T15:44:49.993Z,1.9
2023-03-20T15:46:06.186Z,3.7
2023-03-20T15:48:26.000Z,2.4
2023-03-20T15:49:42.000Z,1.9
2023-03-20T15:51:10.228Z,3.9
2023-03-20T15:52:26.171Z,1.7
2023-03-20T15:53:42.364Z,4
2023-03-20T15:54:58.558Z,3.4
2023-03-20T15:56:14.994Z,4.3
2023-03-20T15:57:19.000Z,3.8
2023-03-20T15:58:47.138Z,2.4
2023-03-20T16:00:03.332Z,4.9
2023-03-20T16:01:19.526Z,3.3
2023-03-20T16:02:35.965Z,5.5
2023-03-20T16:03:50.930Z,3
2023-03-20T16:05:07.369Z,3.7
2023-03-20T16:06:23.566Z,2.9
2023-03-20T16:06:55.000Z,4.6
2023-03-20T16:07:28.000Z,2.2
2023-03-20T16:08:44.000Z,4.9
2023-03-20T16:10:00.000Z,5.9
2023-03-20T16:11:28.090Z,4.3
2023-03-20T16:13:58.520Z,3
2023-03-20T16:15:14.714Z,4.2
2023-03-20T16:16:30.907Z,4.9
2023-03-20T16:17:46.383Z,4.4
2023-03-20T16:19:01.592Z,2.7
2023-03-20T16:20:17.540Z,5.5
2023-03-20T16:21:33.988Z,5.1
2023-03-20T16:22:38.000Z,4.6
2023-03-20T16:24:06.120Z,3.6
2023-03-20T16:25:10.000Z,2.6
2023-03-20T16:26:38.508Z,4.7
2023-03-20T16:27:54.948Z,2.6
2023-03-20T16:29:11.147Z,3.1
2023-03-20T16:30:27.088Z,4.4
2023-03-20T16:31:43.281Z,3.2
2023-03-20T16:32:59.475Z,2.9
2023-03-20T16:34:15.908Z,3.4
2023-03-20T16:35:19.000Z,5.9
2023-03-20T16:36:47.073Z,3.8
2023-03-20T16:38:03.516Z,5.3
2023-03-20T16:39:19.461Z,5.1
2023-03-20T16:40:35.654Z,5
2023-03-20T16:41:51.848Z,2.8
2023-03-20T16:43:08.041Z,3.4
2023-03-20T16:44:23.513Z,5.5
2023-03-20T16:45:27.000Z,5.1
2023-03-20T16:46:54.666Z,3.7
2023-03-20T16:48:11.111Z,2
2023-03-20T16:49:27.303Z,4.1
2023-03-20T16:50:43.247Z,5.1
2023-03-20T16:51:59.441Z,3.5
2023-03-20T16:53:15.635Z,4.1
2023-03-20T16:54:31.828Z,3.2
2023-03-20T16:55:48.022Z,4.4
2023-03-20T16:57:03.242Z,2.8
2023-03-20T16:58:18.452Z,6.4
2023-03-20T16:59:34.645Z,4.5
2023-03-20T17:00:39.000Z,3.1
2023-03-20T17:02:07.032Z,4.2
2023-03-20T17:03:11.000Z,2.7
2023-03-20T17:04:39.420Z,3.5
2023-03-20T17:05:44.000Z,4.6
2023-03-20T17:07:11.807Z,4.1
2023-03-20T17:08:28.001Z,2.5
2023-03-20T17:09:44.195Z,2.7
2023-03-20T17:11:00.388Z,5.4
2023-03-20T17:12:16.582Z,3.6
2023-03-20T17:13:21.000Z,4.4
2023-03-20T17:14:48.970Z,2.5
2023-03-20T17:15:52.000Z,4
2023-03-20T17:17:20.374Z,3.9
2023-03-20T17:18:36.568Z,2.9
2023-03-20T17:19:53.009Z,3.3